100LL.CA
Aviation Fuel Pricing for Canadians
Please upgrade your browser - Tested with IE9, FireFox, Chrome, Safari

Fuel Airports Other Help
Prices Economy Info List METAR/TAF Kneeboard Help

Reference Airport: MAYO, YT
N 63 37 00  W 135 52 08
Provinces to show:

CYMA MAYO, YT
WEATHER
METARCYMA 230400Z 23007KT 200V270 15SM SCT036 OVC100 M01/M04 A2930 RMK SC3AS5 SLP958
TAFTAF CYMA 222340Z 2300/2312 01008KT P6SM BKN060 OVC120 TEMPO 2300/2304 1SM -SHSN VV012 BECMG 2302/2304 26012KT FM230400 24008KT P6SM SCT040 BKN150 FM230900 23008KT P6SM BKN060 TEMPO 2309/2312 5SM -SHSN BKN030 RMK NXT FCST BY 230600Z
OTHER SITES

FlightAware

FltPlan

Google Maps

SkyVector
FUEL
FBO 100LL
member
100LL
public
JETA MOGAS
North 60 (2018-04-06)1.7751.167
Canada Flight Supplement - CYMA
(opens in new tab/window)


Please Send Updates!

Desktop Version ]  [ Mobile Version ]  [ Disclaimer ]